Time;durP1;ratioP1;P1;durP2;ratioP2;P2;SDS_P1;SDS_P2;PMS_P1;PMS_P2;Temp;Humidity;BMP_temperature;BMP_pressure;BME280_temperature;BME280_humidity;BME280_pressure;Samples;Min_cycle;Max_cycle;Signal;HPM_P1;HPM_P2
2021/12/13 00:00:38;;;;;;;62.83;22.25;;;;;;;-1.37;96.02;101822.56;5116838;27;20043;-56
2021/12/13 00:03:13;;;;;;;64.53;22.75;;;;;;;-1.34;95.82;101817.66;5110609;27;20048;-57
2021/12/13 00:05:44;;;;;;;65.77;23.17;;;;;;;-1.32;95.79;101816.06;5121411;27;20679;-57
2021/12/13 00:08:18;;;;;;;61.13;21.55;;;;;;;-1.34;95.83;101813.44;5122150;27;20369;-59
2021/12/13 00:10:50;;;;;;;74.82;24.25;;;;;;;-1.33;95.85;101825.38;5111718;27;20055;-56
2021/12/13 00:13:21;;;;;;;65.78;22.30;;;;;;;-1.32;95.82;101816.94;5112441;27;20416;-57
2021/12/13 00:15:53;;;;;;;58.33;22.30;;;;;;;-1.31;95.92;101813.59;5114245;27;20043;-57
2021/12/13 00:18:28;;;;;;;61.95;22.92;;;;;;;-1.29;95.85;101817.13;5110915;27;20051;-58
2021/12/13 00:21:05;;;;;;;67.53;23.05;;;;;;;-1.27;95.91;101815.53;5112143;27;20043;-57
2021/12/13 00:23:35;;;;;;;65.35;24.48;;;;;;;-1.27;95.59;101825.72;5121450;27;20038;-57
2021/12/13 00:26:04;;;;;;;62.60;21.30;;;;;;;-1.26;95.77;101826.59;5117866;27;20079;-57
2021/12/13 00:28:35;;;;;;;65.70;23.60;;;;;;;-1.24;95.46;101832.63;5115230;27;20435;-57
2021/12/13 00:31:15;;;;;;;77.10;26.23;;;;;;;-1.26;95.43;101829.13;5113694;27;20425;-57
2021/12/13 00:33:57;;;;;;;74.97;28.20;;;;;;;-1.24;95.83;101840.28;5114500;27;20055;-56
2021/12/13 00:36:30;;;;;;;76.38;27.60;;;;;;;-1.20;95.27;101836.22;5112020;27;20585;-57
2021/12/13 00:39:04;;;;;;;73.50;26.75;;;;;;;-1.19;95.36;101837.97;5124328;27;20050;-57
2021/12/13 00:41:31;;;;;;;66.00;23.92;;;;;;;-1.16;95.57;101833.06;5115037;27;20051;-57
2021/12/13 00:44:05;;;;;;;73.15;23.05;;;;;;;-1.16;95.43;101828.84;5113602;27;20046;-56
2021/12/13 00:46:35;;;;;;;71.03;23.17;;;;;;;-1.19;95.23;101827.81;5113592;27;20047;-56
2021/12/13 00:49:06;;;;;;;65.63;22.08;;;;;;;-1.22;95.13;101822.53;5118202;27;20046;-55
2021/12/13 00:51:37;;;;;;;70.68;24.70;;;;;;;-1.22;94.91;101818.34;5109096;27;20061;-56
2021/12/13 00:54:13;;;;;;;75.85;27.70;;;;;;;-1.20;94.92;101821.84;5112836;27;20055;-56
2021/12/13 00:57:06;;;;;;;71.28;24.88;;;;;;;-1.22;95.23;101822.53;5116231;27;20469;-59
2021/12/13 00:59:35;;;;;;;73.03;24.35;;;;;;;-1.25;95.00;101822.38;5112034;27;20047;-56
2021/12/13 01:02:08;;;;;;;72.63;24.35;;;;;;;-1.28;95.12;101821.41;5110138;27;20066;-56
2021/12/13 01:04:56;;;;;;;73.30;26.58;;;;;;;-1.29;94.94;101822.19;5114068;27;21918;-58
2021/12/13 01:07:59;;;;;;;68.57;24.77;;;;;;;-1.32;94.75;101816.94;5111616;27;20054;-57
2021/12/13 01:10:54;;;;;;;67.55;22.15;;;;;;;-1.34;95.28;101820.19;5113155;27;20129;-57
2021/12/13 01:13:25;;;;;;;71.88;23.65;;;;;;;-1.33;94.92;101819.41;5116923;27;20051;-57
2021/12/13 01:15:57;;;;;;;71.90;22.83;;;;;;;-1.35;95.09;101815.88;5109695;27;20048;-56
2021/12/13 01:18:55;;;;;;;74.18;23.35;;;;;;;-1.38;95.09;101821.69;5116641;27;20130;-56
2021/12/13 01:21:39;;;;;;;84.90;25.55;;;;;;;-1.42;95.04;101814.66;5111345;27;20047;-57
2021/12/13 01:24:15;;;;;;;86.80;25.30;;;;;;;-1.45;95.61;101814.50;5111548;27;20051;-57
2021/12/13 01:26:47;;;;;;;90.82;27.20;;;;;;;-1.43;95.53;101812.03;5119698;27;20051;-58
2021/12/13 01:29:17;;;;;;;83.47;25.35;;;;;;;-1.45;95.90;101811.94;5123849;27;20040;-55
2021/12/13 01:31:49;;;;;;;92.50;27.88;;;;;;;-1.48;96.01;101811.78;5112773;27;20126;-57
2021/12/13 01:34:18;;;;;;;98.40;27.58;;;;;;;-1.50;96.25;101809.94;5112288;27;20047;-58
2021/12/13 01:36:56;;;;;;;94.03;24.60;;;;;;;-1.53;96.15;101810.63;5111541;27;20062;-57
2021/12/13 01:39:27;;;;;;;88.68;26.60;;;;;;;-1.56;96.62;101810.47;5111557;27;20071;-58
2021/12/13 01:42:00;;;;;;;86.55;26.52;;;;;;;-1.55;96.77;101807.13;5114201;27;20051;-58
2021/12/13 01:44:30;;;;;;;88.63;25.15;;;;;;;-1.57;96.78;101798.50;5112755;27;20414;-56
2021/12/13 01:47:00;;;;;;;89.78;24.73;;;;;;;-1.60;96.78;101796.66;5110769;27;20046;-56
2021/12/13 01:49:35;;;;;;;116.05;43.50;;;;;;;-1.60;96.92;101799.22;5109575;27;20043;-56
2021/12/13 01:52:05;;;;;;;116.38;36.92;;;;;;;-1.60;96.68;101801.75;5115100;27;20543;-57
2021/12/13 01:54:32;;;;;;;101.82;30.63;;;;;;;-1.60;97.22;101803.41;5114985;27;20042;-57
2021/12/13 01:57:21;;;;;;;126.85;38.80;;;;;;;-1.60;97.16;101800.88;5120822;27;20381;-57
2021/12/13 01:59:54;;;;;;;140.32;47.20;;;;;;;-1.58;97.21;101817.09;5112432;28;20040;-57
2021/12/13 02:02:30;;;;;;;98.53;29.02;;;;;;;-1.59;97.04;101812.81;5109702;28;20043;-57
2021/12/13 02:05:05;;;;;;;100.68;33.83;;;;;;;-1.58;97.13;101806.94;5109804;28;20051;-58
2021/12/13 02:07:40;;;;;;;105.43;35.05;;;;;;;-1.59;97.20;101805.19;5108599;28;20051;-57
2021/12/13 02:10:12;;;;;;;121.45;39.75;;;;;;;-1.60;97.09;101800.88;5119927;28;20043;-58
2021/12/13 02:12:43;;;;;;;123.80;40.47;;;;;;;-1.60;97.21;101806.84;5117655;28;20490;-58
2021/12/13 02:17:57;;;;;;;93.10;30.92;;;;;;;-1.60;97.14;101798.34;5109634;28;20095;-56
2021/12/13 02:20:32;;;;;;;122.53;37.90;;;;;;;-1.61;97.41;101792.38;5113196;27;20154;-57
2021/12/13 02:23:02;;;;;;;108.78;35.25;;;;;;;-1.61;97.57;101801.66;5117066;27;20043;-56
2021/12/13 02:25:33;;;;;;;97.85;29.08;;;;;;;-1.59;97.41;101800.09;5117312;27;20047;-57
2021/12/13 02:28:06;;;;;;;149.88;49.13;;;;;;;-1.57;97.24;101808.69;5113059;27;20500;-57
2021/12/13 02:30:40;;;;;;;88.32;27.65;;;;;;;-1.54;97.25;101811.44;5113052;27;20048;-56
2021/12/13 02:33:09;;;;;;;94.10;32.20;;;;;;;-1.51;97.55;101818.34;5113213;27;21958;-58
2021/12/13 02:35:39;;;;;;;98.40;31.55;;;;;;;-1.47;97.40;101826.25;5116029;27;20052;-57
2021/12/13 02:38:10;;;;;;;95.45;31.30;;;;;;;-1.43;97.26;101823.09;5125679;27;20054;-57
2021/12/13 02:40:38;;;;;;;136.95;41.83;;;;;;;-1.40;97.21;101820.72;5117245;27;20494;-56
2021/12/13 02:43:09;;;;;;;98.78;32.15;;;;;;;-1.38;97.29;101824.22;5116079;27;20524;-57
2021/12/13 02:45:43;;;;;;;87.40;28.98;;;;;;;-1.36;96.92;101825.19;5116090;27;20055;-57
2021/12/13 02:48:20;;;;;;;72.63;24.38;;;;;;;-1.35;97.17;101826.94;5113356;27;20051;-56
2021/12/13 02:50:53;;;;;;;74.78;25.52;;;;;;;-1.29;96.86;101837.47;5114129;27;20043;-55
2021/12/13 02:53:29;;;;;;;78.18;23.10;;;;;;;-1.25;96.78;101837.63;5117435;27;20121;-56
2021/12/13 02:55:56;;;;;;;;;;;;;;;-1.22;96.69;101833.59;5114223;27;20055;-58
2021/12/13 02:58:26;;;;;;;72.68;24.17;;;;;;;-1.19;96.83;101832.88;5115819;27;20355;-58
2021/12/13 03:00:58;;;;;;;87.38;25.88;;;;;;;-1.17;96.32;101832.19;5112506;27;20059;-58
2021/12/13 03:03:30;;;;;;;120.28;36.45;;;;;;;-1.16;96.52;101822.88;5117264;27;20051;-56
2021/12/13 03:06:01;;;;;;;81.95;28.17;;;;;;;-1.16;96.44;101830.53;5117676;27;20487;-57
2021/12/13 03:08:33;;;;;;;109.80;34.00;;;;;;;-1.18;96.38;101820.25;5127542;27;20055;-58
2021/12/13 03:11:08;;;;;;;113.97;35.70;;;;;;;-1.18;96.07;101814.28;5115633;27;20042;-56
2021/12/13 03:13:35;;;;;;;87.22;30.23;;;;;;;-1.18;96.05;101816.84;5118094;27;20065;-57
2021/12/13 03:16:07;;;;;;;100.57;33.58;;;;;;;-1.17;95.68;101816.03;5114945;27;20048;-57
2021/12/13 03:18:43;;;;;;;102.47;30.52;;;;;;;-1.18;95.80;101806.66;5113919;27;20551;-57
2021/12/13 03:21:48;;;;;;;83.50;26.55;;;;;;;-1.16;95.84;101807.63;5122723;27;20507;-57
2021/12/13 03:24:40;;;;;;;65.07;22.23;;;;;;;-1.16;96.19;101817.78;5084665;27;20051;-57
2021/12/13 03:27:26;;;;;;;74.43;22.17;;;;;;;-1.15;95.92;101819.56;5116311;27;20039;-56
2021/12/13 03:29:58;;;;;;;;;;;;;;;-1.16;95.89;101817.78;5111437;27;20449;-56
2021/12/13 03:32:34;;;;;;;61.28;22.00;;;;;;;-1.13;95.66;101826.47;5112520;27;20315;-57
2021/12/13 03:35:09;;;;;;;79.78;25.20;;;;;;;-1.13;95.84;101829.03;5113458;27;20377;-57
2021/12/13 03:37:37;;;;;;;90.77;30.50;;;;;;;-1.09;95.73;101824.97;5114904;27;20047;-57
2021/12/13 03:40:11;;;;;;;80.75;28.55;;;;;;;-1.08;95.64;101819.97;5112632;27;20047;-57
2021/12/13 03:42:42;;;;;;;82.20;27.02;;;;;;;-1.10;95.36;101820.69;5112733;27;20051;-57
2021/12/13 03:45:13;;;;;;;92.40;29.83;;;;;;;-1.09;95.32;101822.44;5122621;27;20051;-57
2021/12/13 03:47:44;;;;;;;88.00;26.65;;;;;;;-1.11;95.29;101816.38;5118021;27;20054;-57
2021/12/13 03:50:15;;;;;;;76.85;23.95;;;;;;;-1.14;95.15;101816.22;5112909;27;20469;-57
2021/12/13 03:52:45;;;;;;;92.03;30.42;;;;;;;-1.17;95.21;101822.00;5111723;27;20085;-57
2021/12/13 03:55:18;;;;;;;92.22;32.45;;;;;;;-1.19;95.29;101825.25;5113308;27;20047;-57
2021/12/13 03:57:49;;;;;;;83.13;27.30;;;;;;;-1.21;95.20;101822.63;5117659;27;20063;-54
2021/12/13 04:00:22;;;;;;;102.55;32.40;;;;;;;-1.19;95.25;101827.81;5124852;27;20039;-56
2021/12/13 04:02:50;;;;;;;97.70;29.85;;;;;;;-1.21;95.26;101824.28;5113141;27;20047;-57
2021/12/13 04:05:20;;;;;;;92.20;30.45;;;;;;;-1.21;95.19;101824.28;5113775;27;20064;-58
2021/12/13 04:07:51;;;;;;;103.57;32.03;;;;;;;-1.20;95.29;101831.13;5119670;27;20511;-57
2021/12/13 04:10:23;;;;;;;91.40;31.15;;;;;;;-1.19;95.37;101832.88;5114426;27;20561;-57
2021/12/13 04:12:53;;;;;;;102.15;35.97;;;;;;;-1.21;95.08;101832.81;5111984;27;20058;-56
2021/12/13 04:15:30;;;;;;;83.28;28.42;;;;;;;-1.22;95.18;101837.81;5119792;27;20113;-57
2021/12/13 04:18:02;;;;;;;91.20;28.13;;;;;;;-1.24;94.97;101835.19;5114092;27;20043;-57
2021/12/13 04:20:32;;;;;;;88.20;28.40;;;;;;;-1.25;95.12;101837.63;5113354;27;20541;-57
2021/12/13 04:23:04;;;;;;;89.85;31.00;;;;;;;-1.27;95.17;101829.91;5112043;27;20052;-57
2021/12/13 04:25:37;;;;;;;85.68;29.40;;;;;;;-1.29;95.16;101837.47;5112572;27;20043;-57
2021/12/13 04:28:13;;;;;;;96.57;36.38;;;;;;;-1.34;95.05;101841.41;5118262;27;20051;-57
2021/12/13 04:30:44;;;;;;;97.75;35.63;;;;;;;-1.36;95.05;101840.44;5120605;27;20435;-57
2021/12/13 04:33:19;;;;;;;85.60;26.73;;;;;;;-1.35;95.27;101847.28;5116937;27;20055;-58
2021/12/13 04:35:50;;;;;;;85.70;26.65;;;;;;;-1.33;94.90;101843.16;5116267;27;20433;-57
2021/12/13 04:38:23;;;;;;;78.75;24.52;;;;;;;-1.32;95.09;101857.63;5117041;27;20051;-56
2021/12/13 04:40:54;;;;;;;72.40;24.65;;;;;;;-1.32;95.30;101855.09;5112153;27;20066;-57
2021/12/13 04:43:23;;;;;;;76.25;27.33;;;;;;;-1.28;95.15;101854.47;5115956;27;20043;-56
2021/12/13 04:45:55;;;;;;;78.90;26.10;;;;;;;-1.28;95.21;101849.38;5116726;27;20423;-57
2021/12/13 04:48:25;;;;;;;78.88;27.42;;;;;;;-1.30;95.50;101850.97;5111263;27;20051;-55
2021/12/13 04:50:55;;;;;;;75.40;27.45;;;;;;;-1.28;95.25;101854.47;5112549;27;20453;-56
2021/12/13 04:53:26;;;;;;;82.93;26.85;;;;;;;-1.24;95.42;101854.66;5123083;27;20066;-57
2021/12/13 04:55:56;;;;;;;85.78;25.80;;;;;;;-1.23;95.24;101857.28;5112158;27;20050;-57
2021/12/13 04:58:25;;;;;;;80.05;27.70;;;;;;;-1.23;95.36;101856.41;5117239;27;20051;-57
2021/12/13 05:00:55;;;;;;;91.07;27.30;;;;;;;-1.24;95.19;101858.06;5114201;27;20050;-57
2021/12/13 05:03:26;;;;;;;102.57;31.85;;;;;;;-1.18;95.51;101860.09;5110294;27;20044;-58
2021/12/13 05:05:53;;;;;;;106.70;33.22;;;;;;;-1.20;95.34;101866.75;5114202;27;20438;-57
2021/12/13 05:08:22;;;;;;;91.50;29.73;;;;;;;-1.20;95.25;101869.31;5114926;27;20051;-57
2021/12/13 05:10:52;;;;;;;102.43;30.80;;;;;;;-1.20;95.30;101872.72;5110804;27;20050;-57
2021/12/13 05:13:24;;;;;;;89.28;28.27;;;;;;;-1.19;95.29;101873.59;5115609;27;20065;-56
2021/12/13 05:15:57;;;;;;;86.40;27.70;;;;;;;-1.22;95.35;101878.50;5119738;27;20118;-57
2021/12/13 05:18:27;;;;;;;87.82;28.75;;;;;;;-1.22;95.47;101878.50;5110368;27;20047;-57
2021/12/13 05:21:02;;;;;;;86.45;30.33;;;;;;;-1.22;95.18;101875.97;5114321;27;20047;-58
2021/12/13 05:23:30;;;;;;;81.35;27.42;;;;;;;-1.25;95.54;101873.25;5112254;27;20055;-56
2021/12/13 05:26:00;;;;;;;94.30;31.67;;;;;;;-1.26;95.20;101872.38;5123049;27;20074;-57
2021/12/13 05:28:31;;;;;;;89.00;29.90;;;;;;;-1.27;95.65;101871.50;5116327;27;20047;-56
2021/12/13 05:31:01;;;;;;;84.88;27.25;;;;;;;-1.25;95.73;101873.25;5114591;27;20448;-57
2021/12/13 05:33:32;;;;;;;90.82;29.83;;;;;;;-1.21;95.48;101880.28;5114455;27;20857;-56
2021/12/13 05:36:01;;;;;;;74.07;26.38;;;;;;;-1.20;95.32;101882.03;5110703;27;20460;-58
2021/12/13 05:38:32;;;;;;;79.43;25.50;;;;;;;-1.17;95.70;101882.19;5109110;27;20044;-59
2021/12/13 05:41:02;;;;;;;84.72;26.08;;;;;;;-1.14;95.59;101874.75;5105697;27;20035;-57
2021/12/13 05:43:34;;;;;;;90.30;27.90;;;;;;;-1.14;95.45;101882.38;5111623;27;20040;-56
2021/12/13 05:46:06;;;;;;;89.47;28.23;;;;;;;-1.16;95.25;101878.88;5110666;27;20055;-58
2021/12/13 05:48:42;;;;;;;89.97;26.88;;;;;;;-1.16;95.43;101878.88;5111574;27;20407;-57
2021/12/13 05:51:22;;;;;;;95.00;28.27;;;;;;;-1.18;95.21;101876.22;5110762;28;20597;-58
2021/12/13 05:53:56;;;;;;;73.40;25.92;;;;;;;-1.16;95.75;101878.88;5125881;27;20600;-58
2021/12/13 05:56:30;;;;;;;84.93;28.60;;;;;;;-1.12;95.34;101880.78;5117662;27;21833;-57
2021/12/13 05:59:11;;;;;;;85.70;28.98;;;;;;;-1.12;95.38;101880.78;5117868;28;20051;-57
2021/12/13 06:01:44;;;;;;;74.88;28.05;;;;;;;-1.11;95.34;101877.47;5113458;28;20043;-57
2021/12/13 06:04:15;;;;;;;84.75;29.52;;;;;;;-1.10;95.32;101871.56;5121146;28;20055;-57
2021/12/13 06:06:48;;;;;;;86.05;29.52;;;;;;;-1.10;95.58;101874.13;5115409;28;20062;-56
2021/12/13 06:09:45;;;;;;;95.28;30.45;;;;;;;-1.12;95.36;101880.78;5109887;28;20039;-57
2021/12/13 06:12:16;;;;;;;89.22;28.65;;;;;;;-1.12;95.42;101885.88;5120192;28;20050;-59
2021/12/13 06:14:45;;;;;;;94.22;29.60;;;;;;;-1.12;95.50;101890.97;5115567;28;20058;-56
2021/12/13 06:17:18;;;;;;;87.55;29.85;;;;;;;-1.10;95.32;101886.84;5116233;28;20055;-56
2021/12/13 06:19:55;;;;;;;85.38;27.98;;;;;;;-1.08;95.45;101892.91;5117153;28;20047;-56
2021/12/13 06:22:25;;;;;;;90.20;29.67;;;;;;;-1.05;95.39;101891.41;5117259;28;20035;-57
2021/12/13 06:24:58;;;;;;;97.68;31.67;;;;;;;-1.04;95.25;101889.72;5115096;28;20051;-56
2021/12/13 06:27:30;;;;;;;91.80;31.05;;;;;;;-1.04;95.68;101884.66;5114397;28;20408;-56
2021/12/13 06:30:06;;;;;;;82.85;27.88;;;;;;;-1.03;95.37;101891.53;5109592;28;20044;-57
2021/12/13 06:32:44;;;;;;;83.80;27.35;;;;;;;-1.00;95.38;101896.78;5110039;28;22034;-57
2021/12/13 06:35:34;;;;;;;84.72;28.52;;;;;;;-0.99;95.18;101893.44;5114981;28;20047;-56
2021/12/13 06:38:30;;;;;;;80.95;27.08;;;;;;;-0.97;95.18;101896.97;5111642;28;20043;-57
2021/12/13 06:41:01;;;;;;;86.87;27.53;;;;;;;-0.99;94.99;101893.44;5109062;28;20051;-57
2021/12/13 06:43:32;;;;;;;85.93;27.92;;;;;;;-1.00;95.26;101891.69;5117729;28;20292;-57
2021/12/13 06:46:05;;;;;;;87.00;27.38;;;;;;;-1.00;95.13;101891.69;5115523;28;20046;-57
2021/12/13 06:48:39;;;;;;;87.45;29.52;;;;;;;-1.01;95.04;101889.94;5110856;28;20527;-57
2021/12/13 06:51:09;;;;;;;95.18;30.50;;;;;;;-1.01;95.19;101905.22;5112720;28;20057;-58
2021/12/13 06:53:37;;;;;;;93.40;32.35;;;;;;;-1.01;95.54;101905.22;5115167;28;20039;-57
2021/12/13 06:56:25;;;;;;;87.70;30.65;;;;;;;-1.02;95.67;101908.53;5116785;28;20043;-57
2021/12/13 06:58:58;;;;;;;82.22;27.00;;;;;;;-1.00;95.41;101904.41;5115879;28;20112;-56
2021/12/13 07:01:28;;;;;;;80.38;28.00;;;;;;;-0.99;95.57;101906.16;5112066;28;20058;-59
2021/12/13 07:03:59;;;;;;;82.07;29.23;;;;;;;-0.95;95.52;101910.66;5108361;28;20049;-57
2021/12/13 07:06:28;;;;;;;86.43;28.75;;;;;;;-0.93;95.59;101903.97;5108278;27;20079;-51
2021/12/13 07:09:10;;;;;;;91.28;29.38;;;;;;;-0.91;95.25;101909.16;5108315;27;20126;-52
2021/12/13 07:11:45;;;;;;;87.75;28.80;;;;;;;-0.92;95.30;101909.94;5112221;27;20039;-55
2021/12/13 07:14:14;;;;;;;94.38;29.58;;;;;;;-0.91;95.23;101912.56;5119678;27;20066;-57
2021/12/13 07:16:47;;;;;;;87.88;28.02;;;;;;;-0.89;95.39;101916.09;5113534;27;20463;-56
2021/12/13 07:19:19;;;;;;;83.75;29.23;;;;;;;-0.86;95.58;101921.34;5115540;27;20043;-56
2021/12/13 07:22:04;;;;;;;81.38;28.10;;;;;;;-0.84;95.56;101916.34;5112605;27;20047;-53
2021/12/13 07:24:40;;;;;;;72.85;25.88;;;;;;;-0.82;95.61;101923.28;5111346;27;20058;-56
2021/12/13 07:27:10;;;;;;;85.05;28.83;;;;;;;-0.80;95.35;101924.22;5117718;27;20159;-56
2021/12/13 07:29:43;;;;;;;76.03;27.17;;;;;;;-0.77;95.52;101926.94;5111295;27;20054;-52
2021/12/13 07:32:17;;;;;;;73.72;27.90;;;;;;;-0.72;95.17;101930.63;5113368;27;20055;-50
2021/12/13 07:35:09;;;;;;;73.60;26.65;;;;;;;-0.70;95.35;101933.25;5110791;27;20074;-50
2021/12/13 07:37:43;;;;;;;80.18;29.50;;;;;;;-0.65;95.14;101937.81;5110097;27;20058;-57
2021/12/13 07:40:23;;;;;;;77.00;26.48;;;;;;;-0.63;94.99;101933.69;5117402;27;20055;-53
2021/12/13 07:43:01;;;;;;;81.40;27.73;;;;;;;-0.59;95.01;101937.28;5117417;27;20495;-50
2021/12/13 07:45:32;;;;;;;83.80;29.88;;;;;;;-0.55;95.13;101943.41;5117269;27;20127;-54
2021/12/13 07:48:06;;;;;;;75.50;28.20;;;;;;;-0.53;94.96;101946.94;5115011;27;20061;-55
2021/12/13 07:50:36;;;;;;;87.50;30.45;;;;;;;-0.48;95.03;101948.09;5110775;27;20407;-58
2021/12/13 07:53:06;;;;;;;84.30;30.23;;;;;;;-0.44;94.95;101942.38;5112542;27;20476;-54
2021/12/13 07:55:34;;;;;;;79.95;27.40;;;;;;;-0.40;95.17;101946.84;5112931;27;20054;-60
2021/12/13 07:58:06;;;;;;;91.10;31.67;;;;;;;-0.38;94.88;101948.69;5112981;27;20057;-53
2021/12/13 08:00:38;;;;;;;94.80;32.67;;;;;;;-0.35;94.64;101953.06;5114420;27;20047;-57
2021/12/13 08:03:12;;;;;;;77.45;30.65;;;;;;;-0.38;94.53;101947.81;5110956;27;20047;-59
2021/12/13 08:05:43;;;;;;;91.57;31.80;;;;;;;-0.39;94.78;101946.94;5111771;27;20552;-60
2021/12/13 08:08:18;;;;;;;78.78;28.98;;;;;;;-0.34;94.58;101950.59;5113170;27;20055;-59
2021/12/13 08:10:46;;;;;;;;;;;;;;;-0.34;94.48;101944.63;5111284;27;20150;-59
2021/12/13 08:13:17;;;;;;;82.50;30.35;;;;;;;-0.29;94.87;101948.31;5111145;27;19927;-59
2021/12/13 08:15:47;;;;;;;87.63;32.03;;;;;;;-0.26;94.57;101948.47;5114729;27;20055;-62
2021/12/13 08:18:30;;;;;;;74.30;29.05;;;;;;;-0.22;94.47;101950.38;5110553;27;20051;-60
2021/12/13 08:21:01;;;;;;;79.90;29.13;;;;;;;-0.15;94.34;101952.47;5110486;27;20490;-60
2021/12/13 08:23:35;;;;;;;92.82;32.92;;;;;;;-0.12;94.25;101951.75;5116083;27;20079;-58
2021/12/13 08:26:05;;;;;;;76.45;27.77;;;;;;;-0.11;94.08;101958.59;5115548;27;20377;-49
2021/12/13 08:28:36;;;;;;;83.75;29.17;;;;;;;-0.07;93.99;101961.41;5115893;27;20051;-54
2021/12/13 08:31:06;;;;;;;77.22;29.15;;;;;;;-0.03;93.86;101972.66;5119156;27;21925;-60
2021/12/13 08:33:39;;;;;;;75.30;28.73;;;;;;;-0.01;93.63;101974.47;5114440;27;20066;-55
2021/12/13 08:36:09;;;;;;;82.80;30.00;;;;;;;0.02;93.67;101985.66;5115294;27;20058;-56
2021/12/13 08:38:42;;;;;;;74.82;29.02;;;;;;;0.06;93.61;101987.59;5113145;27;20221;-50
2021/12/13 08:41:25;;;;;;;78.03;30.65;;;;;;;0.08;93.24;101988.53;5114088;27;20154;-54
2021/12/13 08:43:56;;;;;;;89.93;30.73;;;;;;;0.09;93.37;101982.66;5115403;27;20043;-54
2021/12/13 08:46:36;;;;;;;85.05;30.13;;;;;;;0.09;93.28;101987.75;5111324;27;20058;-53
2021/12/13 08:49:15;;;;;;;79.20;30.65;;;;;;;0.14;92.95;101991.41;5110619;27;20043;-55
2021/12/13 08:51:52;;;;;;;81.63;30.83;;;;;;;0.15;92.85;101988.06;5111669;27;20035;-54
2021/12/13 08:54:21;;;;;;;79.90;30.45;;;;;;;0.14;92.87;101977.00;5112421;27;21843;-55
2021/12/13 08:56:51;;;;;;;83.38;31.40;;;;;;;0.15;92.66;101980.44;5113127;27;20052;-57
2021/12/13 08:59:23;;;;;;;82.35;30.63;;;;;;;0.15;92.63;101977.88;5114943;27;20046;-58
2021/12/13 09:01:53;;;;;;;81.43;29.58;;;;;;;0.14;92.46;101978.69;5114155;27;20475;-51
2021/12/13 09:04:26;;;;;;;82.88;30.67;;;;;;;0.13;92.58;101977.78;5106139;27;20798;-56
2021/12/13 09:06:57;;;;;;;76.93;27.20;;;;;;;0.17;92.58;101978.84;5112953;27;20070;-56
2021/12/13 09:09:25;;;;;;;79.05;29.90;;;;;;;0.21;92.72;101985.84;5108856;27;20047;-51
2021/12/13 09:11:57;;;;;;;79.95;28.55;;;;;;;0.21;92.36;101988.41;5108526;27;20047;-61
2021/12/13 09:14:30;;;;;;;79.20;29.27;;;;;;;0.22;92.35;101990.16;5109596;27;20058;-58
2021/12/13 09:17:11;;;;;;;82.57;29.45;;;;;;;0.24;92.56;101986.00;5110449;27;20147;-60
2021/12/13 09:19:51;;;;;;;78.40;30.20;;;;;;;0.28;92.13;101985.38;5111788;27;20050;-62
2021/12/13 09:22:21;;;;;;;82.25;28.95;;;;;;;0.31;92.11;101980.44;5117816;27;20071;-60
2021/12/13 09:24:53;;;;;;;75.65;28.50;;;;;;;0.36;91.96;101984.09;5118411;27;20058;-61
2021/12/13 09:27:29;;;;;;;73.82;31.25;;;;;;;0.41;92.18;101987.78;5117037;27;20047;-60
2021/12/13 09:30:01;;;;;;;94.63;31.92;;;;;;;0.44;91.78;101993.03;5111975;27;20055;-60
2021/12/13 09:32:35;;;;;;;82.47;30.00;;;;;;;0.45;91.82;101984.59;5120401;27;20047;-56
2021/12/13 09:35:28;;;;;;;85.95;31.25;;;;;;;0.50;91.43;101988.25;5113107;27;20054;-49
2021/12/13 09:37:59;;;;;;;93.05;34.33;;;;;;;0.54;91.68;101994.41;5115713;27;20039;-60
2021/12/13 09:40:33;;;;;;;82.95;30.48;;;;;;;0.57;91.10;101989.47;5111770;27;22100;-48
2021/12/13 09:43:00;;;;;;;85.38;31.60;;;;;;;0.59;91.13;101991.31;5108156;27;20475;-60
2021/12/13 09:45:33;;;;;;;86.20;34.25;;;;;;;0.62;91.26;101999.13;5108504;27;20052;-58
2021/12/13 09:48:16;;;;;;;82.65;30.90;;;;;;;0.63;91.10;102003.44;5110229;27;20039;-57
2021/12/13 09:50:48;;;;;;;82.18;31.52;;;;;;;0.67;90.71;102001.91;5112743;27;20094;-56
2021/12/13 09:53:16;;;;;;;97.10;33.72;;;;;;;0.70;90.64;101998.63;5112452;27;20039;-62
2021/12/13 09:55:48;;;;;;;104.70;38.70;;;;;;;0.73;90.77;101996.25;5109534;27;20088;-61
2021/12/13 09:58:20;;;;;;;88.22;32.53;;;;;;;0.73;90.13;101996.25;5108454;27;20055;-58
2021/12/13 10:00:50;;;;;;;81.07;30.60;;;;;;;0.74;90.26;101991.22;5110935;28;22528;-59
2021/12/13 10:03:22;;;;;;;79.30;30.25;;;;;;;0.73;90.09;101986.91;5109292;28;20050;-59
2021/12/13 10:05:57;;;;;;;96.28;35.70;;;;;;;0.74;90.35;101987.78;5107386;27;20128;-57
2021/12/13 10:08:27;;;;;;;76.18;29.55;;;;;;;0.78;90.34;101994.81;5109005;27;20535;-60
2021/12/13 10:10:58;;;;;;;84.60;31.73;;;;;;;0.78;89.97;101989.69;5122683;28;20050;-52
2021/12/13 10:13:30;;;;;;;91.07;35.45;;;;;;;0.75;90.10;101987.88;5109121;28;20069;-56
2021/12/13 10:16:02;;;;;;;90.47;30.90;;;;;;;0.76;90.13;101986.19;5113014;28;20043;-55
2021/12/13 10:18:34;;;;;;;110.70;43.28;;;;;;;0.80;90.42;101985.53;5109234;28;20047;-54
2021/12/13 10:21:08;;;;;;;92.38;32.17;;;;;;;0.84;90.23;101990.00;5110392;28;20056;-48
2021/12/13 10:23:39;;;;;;;106.88;40.15;;;;;;;0.87;90.45;101979.94;5109758;27;20062;-58
2021/12/13 10:26:09;;;;;;;80.68;28.48;;;;;;;0.86;89.81;101988.41;5111900;28;20051;-60
2021/12/13 10:28:39;;;;;;;114.38;43.13;;;;;;;0.84;90.29;101977.25;5110198;28;20391;-59
2021/12/13 10:31:11;;;;;;;98.30;34.70;;;;;;;0.87;90.24;101982.50;5112947;28;20097;-59
2021/12/13 10:33:39;;;;;;;104.78;36.80;;;;;;;0.87;90.21;101974.84;5118212;28;20043;-55
2021/12/13 10:36:09;;;;;;;91.50;33.40;;;;;;;0.88;90.34;101966.38;5108540;28;20040;-54
2021/12/13 10:38:39;;;;;;;147.85;49.63;;;;;;;0.92;90.43;101958.06;5113732;27;20062;-52
2021/12/13 10:41:09;;;;;;;114.50;42.05;;;;;;;1.00;90.74;101956.78;5112640;27;20051;-57
2021/12/13 10:43:41;;;;;;;116.80;43.90;;;;;;;1.03;90.75;101959.47;5111770;27;20039;-56
2021/12/13 10:46:12;;;;;;;94.38;34.85;;;;;;;0.99;90.74;101965.25;5120468;27;20051;-57
2021/12/13 10:48:45;;;;;;;100.28;37.67;;;;;;;0.96;90.13;101959.97;5116495;27;20058;-50
2021/12/13 10:51:17;;;;;;;97.60;35.63;;;;;;;0.99;90.81;101965.25;5111600;27;20151;-52
2021/12/13 10:53:46;;;;;;;89.45;32.40;;;;;;;0.93;90.60;101959.84;5110031;27;20419;-61
2021/12/13 10:56:16;;;;;;;88.20;31.88;;;;;;;0.91;90.96;101961.44;5110858;27;20059;-54
2021/12/13 10:58:48;;;;;;;95.43;33.70;;;;;;;0.92;91.07;101958.06;5112739;27;20502;-61
2021/12/13 11:01:19;;;;;;;96.53;35.08;;;;;;;0.95;91.11;101953.13;5112830;27;20055;-61
2021/12/13 11:03:47;;;;;;;83.40;31.10;;;;;;;0.93;91.10;101957.28;5117278;27;20058;-62
2021/12/13 11:06:18;;;;;;;89.53;32.20;;;;;;;0.94;90.68;101956.47;5123483;27;20051;-61
2021/12/13 11:08:45;;;;;;;88.53;32.92;;;;;;;0.91;91.01;101961.44;5113292;27;20055;-61
2021/12/13 11:11:18;;;;;;;79.90;32.67;;;;;;;0.88;91.02;101962.16;5112485;27;20103;-60
2021/12/13 11:13:48;;;;;;;94.88;35.55;;;;;;;0.88;91.07;101966.38;5116540;27;20071;-58
2021/12/13 11:16:19;;;;;;;87.78;32.92;;;;;;;0.90;90.99;101959.69;5118669;27;20062;-47
2021/12/13 11:18:49;;;;;;;98.18;36.33;;;;;;;0.90;91.34;101957.13;5120329;27;20136;-55
2021/12/13 11:21:21;;;;;;;88.78;34.08;;;;;;;0.91;91.39;101961.44;5111219;27;20055;-51
2021/12/13 11:23:50;;;;;;;115.75;42.55;;;;;;;0.93;90.98;101964.94;5110025;27;20043;-60
2021/12/13 11:26:20;;;;;;;95.60;34.75;;;;;;;0.95;91.21;101964.22;5118313;27;20510;-55
2021/12/13 11:28:48;;;;;;;112.72;41.17;;;;;;;0.95;91.15;101960.78;5110895;27;20051;-54
2021/12/13 11:31:40;;;;;;;92.97;34.20;;;;;;;0.99;91.22;101960.13;5113105;27;20065;-58
2021/12/13 11:34:41;;;;;;;99.43;36.40;;;;;;;1.02;91.00;101959.41;5111437;27;20047;-61
2021/12/13 11:37:54;;;;;;;99.70;36.75;;;;;;;1.02;91.23;101964.50;5088647;27;20419;-57
2021/12/13 11:40:46;;;;;;;82.43;29.85;;;;;;;0.94;90.91;101956.47;5111312;27;20078;-57
2021/12/13 11:43:36;;;;;;;91.45;34.70;;;;;;;0.96;91.07;101959.97;5112141;27;20047;-58